createdAt,value
2023-08-15T00:00:27.841Z,57625.75
2023-08-15T00:02:54.787Z,57650.50
2023-08-15T00:05:21.771Z,57611.31
2023-08-15T00:07:49.682Z,57621.63
2023-08-15T00:10:16.656Z,57603.06
2023-08-15T00:12:44.446Z,57621.63
2023-08-15T00:15:11.689Z,57625.75
2023-08-15T00:17:39.489Z,57609.25
2023-08-15T00:20:07.967Z,57621.63
2023-08-15T00:22:34.778Z,57617.50
2023-08-15T00:25:01.596Z,57636.06
2023-08-15T00:27:28.435Z,57586.56
2023-08-15T00:29:55.140Z,57619.56
2023-08-15T00:32:21.987Z,57592.75
2023-08-15T00:34:49.824Z,57613.38
2023-08-15T00:37:16.634Z,57611.31
2023-08-15T00:39:43.503Z,57603.06
2023-08-15T00:42:10.273Z,57613.38
2023-08-15T00:44:42.130Z,57584.50
2023-08-15T00:47:08.938Z,57586.56
2023-08-15T00:49:35.761Z,57603.06
2023-08-15T00:52:03.257Z,57563.88
2023-08-15T00:54:30.127Z,57584.50
2023-08-15T00:56:56.923Z,57584.50
2023-08-15T00:59:23.790Z,57580.38
2023-08-15T01:01:50.680Z,57592.75
2023-08-15T01:04:18.553Z,57568.00
2023-08-15T01:06:46.340Z,57563.88
2023-08-15T01:09:14.160Z,57576.25
2023-08-15T01:12:07.330Z,57568.00
2023-08-15T01:14:55.184Z,57553.53
2023-08-15T01:17:28.498Z,57563.88
2023-08-15T01:19:56.362Z,57551.47
2023-08-15T01:22:24.882Z,57578.31
2023-08-15T01:24:51.764Z,57551.47
2023-08-15T01:27:18.746Z,57549.41
2023-08-15T01:29:45.732Z,57576.25
2023-08-15T01:32:35.330Z,57549.41
2023-08-15T01:35:22.462Z,57570.06
2023-08-15T01:37:52.330Z,57568.00
2023-08-15T01:40:19.188Z,57555.59
2023-08-15T01:42:46.001Z,57553.53
2023-08-15T01:45:12.832Z,57541.16
2023-08-15T01:47:39.642Z,57532.91
2023-08-15T01:50:07.296Z,57530.84
2023-08-15T01:52:34.207Z,57551.47
2023-08-15T01:55:00.943Z,57512.28
2023-08-15T01:57:27.774Z,57510.22
2023-08-15T01:59:54.695Z,57518.47
2023-08-15T02:02:22.401Z,57532.91
2023-08-15T02:04:49.165Z,57514.34
2023-08-15T02:07:16.054Z,57501.97
2023-08-15T02:09:42.866Z,57516.41
2023-08-15T02:12:09.754Z,57514.34
2023-08-15T02:14:37.645Z,57464.81
2023-08-15T02:17:04.416Z,57497.84
2023-08-15T02:19:31.148Z,57501.97
2023-08-15T02:21:57.926Z,57504.03
2023-08-15T02:24:24.799Z,57499.91
2023-08-15T02:26:52.636Z,57487.53
2023-08-15T02:29:20.484Z,57464.81
2023-08-15T02:31:52.270Z,57491.66
2023-08-15T02:34:20.177Z,57510.22
2023-08-15T02:36:49.700Z,57477.22
2023-08-15T02:39:18.066Z,57481.34
2023-08-15T02:41:44.875Z,57473.09
2023-08-15T02:44:11.701Z,57477.22
2023-08-15T02:46:38.618Z,57485.47
2023-08-15T02:49:06.820Z,57473.09
2023-08-15T02:51:33.671Z,57491.66
2023-08-15T02:54:00.550Z,57446.25
2023-08-15T02:56:27.248Z,57444.19
2023-08-15T02:58:54.274Z,57444.19
2023-08-15T03:01:22.734Z,57454.50
2023-08-15T03:03:49.633Z,57429.75
2023-08-15T03:06:16.530Z,57425.63
2023-08-15T03:08:43.263Z,57427.69
2023-08-15T03:11:10.046Z,57425.63
2023-08-15T03:13:37.111Z,57413.25
2023-08-15T03:16:04.130Z,57431.81
2023-08-15T03:18:30.872Z,57405.00
2023-08-15T03:20:58.216Z,57409.13
2023-08-15T03:23:25.340Z,57405.00
2023-08-15T03:25:59.294Z,57394.69
2023-08-15T03:28:26.346Z,57384.38
2023-08-15T03:30:53.285Z,57374.06
2023-08-15T03:33:20.152Z,57390.56
2023-08-15T03:35:47.759Z,57341.03
2023-08-15T03:38:16.972Z,57365.81
2023-08-15T03:40:48.266Z,57357.56
2023-08-15T03:43:15.069Z,57345.16
2023-08-15T03:45:41.949Z,57376.13
2023-08-15T03:48:09.645Z,57386.44
2023-08-15T03:50:37.030Z,57332.78
2023-08-15T03:53:06.038Z,57349.28
2023-08-15T03:55:32.868Z,57365.81
2023-08-15T03:57:59.683Z,57336.91
2023-08-15T04:00:26.437Z,57349.28
2023-08-15T04:02:53.331Z,57328.66
2023-08-15T04:05:21.221Z,57332.78
2023-08-15T04:07:51.183Z,57330.72
2023-08-15T04:10:18.316Z,57330.72
2023-08-15T04:12:45.635Z,57326.59
2023-08-15T04:15:13.492Z,57312.16
2023-08-15T04:17:40.357Z,57318.34
2023-08-15T04:20:08.580Z,57314.22
2023-08-15T04:22:37.454Z,57305.97
2023-08-15T04:25:04.516Z,57320.41
2023-08-15T04:27:31.355Z,57330.72
2023-08-15T04:29:59.218Z,57314.22
2023-08-15T04:32:25.947Z,57332.78
2023-08-15T04:34:52.888Z,57299.78
2023-08-15T04:37:19.993Z,57308.03
2023-08-15T04:39:46.976Z,57297.72
2023-08-15T04:42:13.808Z,57308.03
2023-08-15T04:44:40.473Z,57287.41
2023-08-15T04:47:07.366Z,57301.84
2023-08-15T04:49:34.982Z,57272.97
2023-08-15T04:52:01.955Z,57262.66
2023-08-15T04:54:28.840Z,57268.84
2023-08-15T04:56:55.563Z,57285.34
2023-08-15T04:59:22.304Z,57285.34
2023-08-15T05:01:49.155Z,57260.59
2023-08-15T05:04:15.903Z,57279.16
2023-08-15T05:06:42.645Z,57270.91
2023-08-15T05:09:09.362Z,57248.22
2023-08-15T05:11:36.098Z,57262.66
2023-08-15T05:14:03.006Z,57264.72
2023-08-15T05:16:29.847Z,57250.28
2023-08-15T05:18:56.711Z,57242.03
2023-08-15T05:21:23.565Z,57239.97
2023-08-15T05:23:50.323Z,57250.28
2023-08-15T05:26:17.084Z,57248.22
2023-08-15T05:28:46.017Z,57213.13
2023-08-15T05:31:15.343Z,57266.78
2023-08-15T05:33:42.051Z,57242.03
2023-08-15T05:36:09.018Z,57239.97
2023-08-15T05:38:38.343Z,57264.72
2023-08-15T05:41:05.145Z,57256.47
2023-08-15T05:43:32.908Z,57277.09
2023-08-15T05:45:59.658Z,57221.41
2023-08-15T05:48:26.404Z,57237.91
2023-08-15T05:50:53.239Z,57221.41
2023-08-15T05:53:21.049Z,57244.09
2023-08-15T05:55:47.813Z,57237.91
2023-08-15T05:58:14.538Z,57225.53
2023-08-15T06:00:42.271Z,57227.59
2023-08-15T06:03:09.297Z,57217.28
2023-08-15T06:05:36.118Z,57219.34
2023-08-15T06:08:02.934Z,57213.13
2023-08-15T06:10:29.789Z,57209.00
2023-08-15T06:12:56.573Z,57209.00
2023-08-15T06:15:23.394Z,57173.94
2023-08-15T06:17:50.110Z,57184.25
2023-08-15T06:20:16.995Z,57202.81
2023-08-15T06:22:43.737Z,57209.00
2023-08-15T06:25:10.463Z,57204.88
2023-08-15T06:27:37.262Z,57196.63
2023-08-15T06:30:04.398Z,57190.44
2023-08-15T06:32:31.999Z,57188.38
2023-08-15T06:34:58.829Z,57178.06
2023-08-15T06:37:25.604Z,57213.13
2023-08-15T06:39:52.390Z,57204.88
2023-08-15T06:42:19.106Z,57194.56
2023-08-15T06:44:45.746Z,57184.25
2023-08-15T06:47:12.616Z,57209.00
2023-08-15T06:49:39.365Z,57184.25
2023-08-15T06:52:08.269Z,57215.22
2023-08-15T06:54:35.330Z,57213.13
2023-08-15T06:57:02.083Z,57211.09
2023-08-15T06:59:29.653Z,57190.44
2023-08-15T07:01:56.412Z,57171.88
2023-08-15T07:04:23.092Z,57188.38
2023-08-15T07:06:49.854Z,57178.06
2023-08-15T07:09:16.591Z,57190.44
2023-08-15T07:11:43.314Z,57188.38
2023-08-15T07:14:10.050Z,57206.94
2023-08-15T07:16:36.761Z,57250.28
2023-08-15T07:19:05.446Z,57223.47
2023-08-15T07:21:32.258Z,57229.66
2023-08-15T07:23:59.002Z,57250.28
2023-08-15T07:26:25.703Z,57254.41
2023-08-15T07:28:52.403Z,57258.53
2023-08-15T07:31:19.193Z,57285.34
2023-08-15T07:33:45.979Z,57279.16
2023-08-15T07:36:12.645Z,57312.16
2023-08-15T07:38:39.425Z,57312.16
2023-08-15T07:41:06.299Z,57295.66
2023-08-15T07:43:33.063Z,57301.84
2023-08-15T07:46:00.884Z,57345.16
2023-08-15T07:48:27.625Z,57326.59
2023-08-15T07:50:54.886Z,57338.97
2023-08-15T07:53:22.608Z,57326.59
2023-08-15T07:55:49.374Z,57345.16
2023-08-15T07:58:16.501Z,57361.69
2023-08-15T08:00:43.867Z,57363.75
2023-08-15T08:03:10.808Z,57378.19
2023-08-15T08:05:37.574Z,57405.00
2023-08-15T08:08:04.633Z,57394.69
2023-08-15T08:10:31.439Z,57415.31
2023-08-15T08:12:58.546Z,57429.75
2023-08-15T08:15:25.257Z,57444.19
2023-08-15T08:17:52.076Z,57464.81
2023-08-15T08:20:19.509Z,57491.66
2023-08-15T08:22:46.210Z,57481.34
2023-08-15T08:25:24.056Z,57489.59
2023-08-15T08:27:50.938Z,57526.72
2023-08-15T08:30:19.032Z,57514.34
2023-08-15T08:32:45.849Z,57526.72
2023-08-15T08:35:12.820Z,57528.78
2023-08-15T08:37:40.065Z,57528.78
2023-08-15T08:40:08.279Z,57534.97
2023-08-15T08:42:35.673Z,57541.16
2023-08-15T08:45:04.201Z,57565.91
2023-08-15T08:47:31.684Z,57545.28
2023-08-15T08:50:01.229Z,57584.50
2023-08-15T08:52:31.055Z,57576.25
2023-08-15T08:54:58.012Z,57576.25
2023-08-15T08:57:27.752Z,57580.38
2023-08-15T08:59:56.372Z,57557.66
2023-08-15T09:02:23.757Z,57588.63
2023-08-15T09:04:50.570Z,57549.41
2023-08-15T09:07:17.636Z,57557.66
2023-08-15T09:09:44.531Z,57563.88
2023-08-15T09:12:11.719Z,57551.47
2023-08-15T09:14:42.085Z,57576.25
2023-08-15T09:17:08.819Z,57559.72
2023-08-15T09:19:41.724Z,57584.50
2023-08-15T09:22:08.462Z,57561.78
2023-08-15T09:24:35.322Z,57582.44
2023-08-15T09:27:07.048Z,57570.06
2023-08-15T09:29:35.168Z,57592.75
2023-08-15T09:32:01.970Z,57609.25
2023-08-15T09:34:28.712Z,57582.44
2023-08-15T09:36:55.467Z,57584.50
2023-08-15T09:39:22.545Z,57601.00
2023-08-15T09:41:50.258Z,57592.75
2023-08-15T09:44:30.617Z,57619.56
2023-08-15T09:46:57.412Z,57646.38
2023-08-15T09:49:24.452Z,57652.56
2023-08-15T09:51:52.271Z,57652.56
2023-08-15T09:54:19.347Z,57648.44
2023-08-15T09:56:47.839Z,57646.38
2023-08-15T09:59:16.478Z,57673.22
2023-08-15T10:01:43.536Z,57700.03
2023-08-15T10:04:11.845Z,57708.28
2023-08-15T10:06:38.673Z,57733.03
2023-08-15T10:09:06.442Z,57764.00
2023-08-15T10:11:34.972Z,57770.19
2023-08-15T10:14:01.797Z,57759.88
2023-08-15T10:16:28.636Z,57766.06
2023-08-15T10:18:55.832Z,57799.06
2023-08-15T10:21:22.715Z,57782.56
2023-08-15T10:23:53.157Z,57827.94
2023-08-15T10:26:19.902Z,57788.75
2023-08-15T10:28:46.936Z,57856.84
2023-08-15T10:31:13.659Z,57813.50
2023-08-15T10:33:43.233Z,57846.53
2023-08-15T10:36:11.113Z,57817.63
2023-08-15T10:38:42.377Z,57794.94
2023-08-15T10:41:19.217Z,57813.50
2023-08-15T10:43:50.986Z,57819.69
2023-08-15T10:46:20.182Z,57844.47
2023-08-15T10:51:26.112Z,57809.38
2023-08-15T10:53:57.615Z,57856.84
2023-08-15T10:56:25.838Z,57811.44
2023-08-15T10:58:53.605Z,57844.47
2023-08-15T11:01:21.421Z,57898.09
2023-08-15T11:03:49.095Z,57904.31
2023-08-15T11:06:15.967Z,57922.88
2023-08-15T11:08:50.964Z,57910.50
2023-08-15T11:11:17.890Z,57924.94
2023-08-15T11:13:48.452Z,57951.75
2023-08-15T11:16:17.045Z,57953.81
2023-08-15T11:18:44.106Z,57939.38
2023-08-15T11:21:12.566Z,57920.81
2023-08-15T11:23:39.762Z,57939.38
2023-08-15T11:26:11.087Z,57957.94
2023-08-15T11:28:38.247Z,57988.91
2023-08-15T11:33:44.811Z,57982.72
2023-08-15T11:36:11.617Z,57997.16
2023-08-15T11:38:39.733Z,57980.66
2023-08-15T11:41:06.747Z,57962.06
2023-08-15T11:43:34.398Z,57997.16
2023-08-15T11:46:04.840Z,58021.91
2023-08-15T11:48:32.615Z,58038.41
2023-08-15T11:50:59.615Z,58042.53
2023-08-15T11:53:26.573Z,58075.56
2023-08-15T12:18:31.649Z,58075.56
2023-08-15T12:20:58.673Z,58087.94
2023-08-15T12:23:28.604Z,58063.19
2023-08-15T12:25:56.281Z,58040.47
2023-08-15T12:28:23.276Z,58061.13
2023-08-15T12:30:50.281Z,58044.59
2023-08-15T12:33:27.506Z,58030.16
2023-08-15T12:36:04.447Z,58028.09
2023-08-15T12:38:31.402Z,58046.66
2023-08-15T12:40:58.419Z,58054.94
2023-08-15T12:43:25.356Z,58071.44
2023-08-15T12:45:52.416Z,58067.31
2023-08-15T12:48:23.460Z,58057.00
2023-08-15T12:50:50.781Z,58065.25
2023-08-15T12:53:17.770Z,58050.81
2023-08-15T12:55:46.706Z,58054.94
2023-08-15T12:58:13.829Z,58071.44
2023-08-15T13:00:42.896Z,58077.63
2023-08-15T13:03:10.731Z,58090.00
2023-08-15T13:05:37.815Z,58096.19
2023-08-15T13:08:05.092Z,58087.94
2023-08-15T13:10:32.005Z,58110.63
2023-08-15T13:12:58.967Z,58090.00
2023-08-15T13:15:25.965Z,58100.31
2023-08-15T13:17:53.105Z,58106.50
2023-08-15T13:20:20.016Z,58104.44
2023-08-15T13:22:46.945Z,58081.75
2023-08-15T13:25:13.736Z,58083.81
2023-08-15T13:27:40.376Z,58067.31
2023-08-15T13:30:08.704Z,58034.28
2023-08-15T13:32:35.699Z,57988.91
2023-08-15T13:35:02.484Z,57999.22
2023-08-15T13:37:29.440Z,58017.78
2023-08-15T13:39:58.754Z,57982.72
2023-08-15T13:42:37.423Z,58019.84
2023-08-15T13:45:09.523Z,58005.41
2023-08-15T13:47:39.255Z,58042.53
2023-08-15T13:50:07.025Z,58059.06
2023-08-15T13:52:34.047Z,58077.63
2023-08-15T13:55:05.846Z,58054.94
2023-08-15T13:57:33.812Z,58061.13
2023-08-15T14:00:00.601Z,58009.53
2023-08-15T14:02:27.239Z,58017.78
2023-08-15T14:04:55.094Z,57976.50
2023-08-15T14:07:22.299Z,57968.25
2023-08-15T14:09:53.086Z,57937.31
2023-08-15T14:12:23.873Z,57974.44
2023-08-15T14:14:50.915Z,57947.63
2023-08-15T14:17:17.905Z,57955.88
2023-08-15T14:19:44.626Z,57984.78
2023-08-15T14:22:11.250Z,57988.91
2023-08-15T14:24:39.007Z,57986.84
2023-08-15T14:27:06.196Z,57968.25
2023-08-15T14:29:33.013Z,57960.00
2023-08-15T14:32:00.957Z,57960.00
2023-08-15T14:34:28.713Z,57935.25
2023-08-15T14:36:55.418Z,57939.38
2023-08-15T14:39:22.147Z,57957.94
2023-08-15T14:41:50.708Z,57999.22
2023-08-15T14:44:18.416Z,58007.47
2023-08-15T14:46:47.262Z,58007.47
2023-08-15T14:49:13.995Z,58011.59
2023-08-15T14:51:40.642Z,58032.22
2023-08-15T14:54:07.376Z,58046.66
2023-08-15T14:56:34.212Z,58017.78
2023-08-15T14:59:01.920Z,58026.03
2023-08-15T15:01:28.699Z,58036.34
2023-08-15T15:03:56.824Z,57988.91
2023-08-15T15:06:23.835Z,58007.47
2023-08-15T15:08:50.704Z,57988.91
2023-08-15T15:11:17.403Z,58030.16
2023-08-15T15:13:45.754Z,58040.47
2023-08-15T15:16:16.532Z,58071.44
2023-08-15T15:18:43.861Z,58063.19
2023-08-15T15:21:10.552Z,58065.25
2023-08-15T15:23:37.219Z,58079.69
2023-08-15T15:26:03.956Z,58071.44
2023-08-15T15:28:30.783Z,58085.88
2023-08-15T15:30:58.462Z,58046.66
2023-08-15T15:33:27.042Z,58050.81
2023-08-15T15:35:53.888Z,58019.84
2023-08-15T15:38:20.763Z,58042.53
2023-08-15T15:40:48.480Z,58017.78
2023-08-15T15:43:16.192Z,58046.66
2023-08-15T15:45:44.028Z,58001.28
2023-08-15T15:48:10.839Z,57999.22
2023-08-15T15:50:37.680Z,58017.78
2023-08-15T15:53:05.938Z,58003.34
2023-08-15T15:55:32.636Z,58036.34
2023-08-15T15:58:01.399Z,58030.16
2023-08-15T16:00:28.026Z,58059.06
2023-08-15T16:02:54.736Z,58063.19
2023-08-15T16:05:21.391Z,58059.06
2023-08-15T16:07:47.979Z,58067.31
2023-08-15T16:10:14.658Z,58059.06
2023-08-15T16:12:41.284Z,58046.66
2023-08-15T16:15:08.551Z,58059.06
2023-08-15T16:17:35.568Z,58034.28
2023-08-15T16:20:03.026Z,58017.78
2023-08-15T16:22:29.623Z,58030.16
2023-08-15T16:24:56.379Z,58030.16
2023-08-15T16:27:23.126Z,58017.78
2023-08-15T16:29:50.666Z,58009.53
2023-08-15T16:32:19.072Z,58030.16
2023-08-15T16:34:45.710Z,58003.34
2023-08-15T16:37:12.538Z,58005.41
2023-08-15T16:39:39.178Z,58003.34
2023-08-15T16:42:05.918Z,58007.47
2023-08-15T16:44:32.871Z,58013.66
2023-08-15T16:46:59.529Z,58001.28
2023-08-15T16:49:26.284Z,57997.16
2023-08-15T16:51:53.034Z,58001.28
2023-08-15T16:54:19.719Z,57982.72
2023-08-15T16:56:46.275Z,57960.00
2023-08-15T16:59:12.936Z,57974.44
2023-08-15T17:01:39.563Z,57964.13
2023-08-15T17:04:06.476Z,57931.13
2023-08-15T17:06:33.246Z,57939.38
2023-08-15T17:08:59.906Z,57924.94
2023-08-15T17:11:26.856Z,57957.94
2023-08-15T17:13:53.954Z,57943.50
2023-08-15T17:16:20.692Z,57931.13
2023-08-15T17:18:47.404Z,57955.88
2023-08-15T17:21:14.092Z,57951.75
2023-08-15T17:23:40.771Z,57924.94
2023-08-15T17:26:07.459Z,57937.31
2023-08-15T17:28:34.129Z,57908.44
2023-08-15T17:31:01.112Z,57939.38
2023-08-15T17:33:28.040Z,57914.63
2023-08-15T17:35:54.698Z,57924.94
2023-08-15T17:38:21.381Z,57906.34
2023-08-15T17:40:48.040Z,57898.09
2023-08-15T17:43:14.704Z,57918.75
2023-08-15T17:45:42.000Z,57904.31
2023-08-15T17:48:09.889Z,57873.34
2023-08-15T17:50:36.770Z,57873.34
2023-08-15T17:53:03.460Z,57883.66
2023-08-15T17:55:30.709Z,57885.72
2023-08-15T17:57:57.446Z,57879.53
2023-08-15T18:00:24.203Z,57865.09
2023-08-15T18:02:50.995Z,57836.22
2023-08-15T18:05:17.812Z,57846.53
2023-08-15T18:07:44.515Z,57844.47
2023-08-15T18:10:11.249Z,57813.50
2023-08-15T18:12:37.954Z,57797.00
2023-08-15T18:15:05.047Z,57823.81
2023-08-15T18:17:31.884Z,57803.19
2023-08-15T18:19:58.617Z,57805.25
2023-08-15T18:22:25.449Z,57819.69
2023-08-15T18:24:52.144Z,57811.44
2023-08-15T18:27:20.833Z,57809.38
2023-08-15T18:29:47.896Z,57794.94
2023-08-15T18:32:14.491Z,57770.19
2023-08-15T18:34:41.253Z,57770.19
2023-08-15T18:37:07.871Z,57774.31
2023-08-15T18:39:34.566Z,57753.69
2023-08-15T18:42:01.257Z,57790.81
2023-08-15T18:44:28.091Z,57761.94
2023-08-15T18:46:54.743Z,57751.63
2023-08-15T18:49:21.426Z,57737.16
2023-08-15T18:51:48.123Z,57741.28
2023-08-15T18:54:14.759Z,57741.28
2023-08-15T18:56:41.417Z,57697.97
2023-08-15T18:59:08.078Z,57753.69
2023-08-15T19:01:34.734Z,57741.28
2023-08-15T19:04:01.416Z,57722.72
2023-08-15T19:06:28.083Z,57722.72
2023-08-15T19:08:54.730Z,57720.66
2023-08-15T19:11:21.290Z,57724.78
2023-08-15T19:13:48.015Z,57730.97
2023-08-15T19:16:14.677Z,57728.91
2023-08-15T19:18:41.450Z,57716.53
2023-08-15T19:21:08.433Z,57728.91
2023-08-15T19:23:35.177Z,57716.53
2023-08-15T19:26:01.789Z,57704.16
2023-08-15T19:28:28.486Z,57708.28
2023-08-15T19:30:55.283Z,57700.03
2023-08-15T19:33:21.855Z,57675.28
2023-08-15T19:35:48.546Z,57685.59
2023-08-15T19:38:15.135Z,57689.72
2023-08-15T19:40:42.637Z,57700.03
2023-08-15T19:43:09.276Z,57700.03
2023-08-15T19:45:35.897Z,57658.75
2023-08-15T19:48:02.584Z,57695.91
2023-08-15T19:50:30.392Z,57706.22
2023-08-15T19:52:57.272Z,57683.53
2023-08-15T19:55:23.992Z,57673.22
2023-08-15T19:57:50.687Z,57654.63
2023-08-15T20:00:18.207Z,57671.16
2023-08-15T20:02:45.337Z,57667.03
2023-08-15T20:05:12.090Z,57658.75
2023-08-15T20:07:39.079Z,57667.03
2023-08-15T20:10:11.453Z,57671.16
2023-08-15T20:12:39.128Z,57654.63
2023-08-15T20:15:06.253Z,57646.38
2023-08-15T20:17:32.982Z,57656.69
2023-08-15T20:19:59.857Z,57656.69
2023-08-15T20:22:26.996Z,57625.75
2023-08-15T20:24:54.129Z,57634.00
2023-08-15T20:27:20.891Z,57634.00
2023-08-15T20:29:47.737Z,57638.13
2023-08-15T20:32:14.497Z,57607.19
2023-08-15T20:34:41.301Z,57605.13
2023-08-15T20:37:08.053Z,57609.25
2023-08-15T20:39:35.082Z,57605.13
2023-08-15T20:42:01.853Z,57615.44
2023-08-15T20:44:28.590Z,57598.94
2023-08-15T20:46:56.178Z,57609.25
2023-08-15T20:49:23.135Z,57598.94
2023-08-15T20:51:50.322Z,57578.31
2023-08-15T20:54:17.096Z,57570.06
2023-08-15T20:56:43.783Z,57588.63
2023-08-15T20:59:10.396Z,57578.31
2023-08-15T21:01:37.001Z,57603.06
2023-08-15T21:04:03.844Z,57572.13
2023-08-15T21:06:30.562Z,57590.69
2023-08-15T21:08:57.237Z,57559.72
2023-08-15T21:11:23.908Z,57598.94
2023-08-15T21:13:50.506Z,57586.56
2023-08-15T21:16:17.161Z,57561.78
2023-08-15T21:18:43.818Z,57551.47
2023-08-15T21:21:10.447Z,57576.25
2023-08-15T21:23:37.075Z,57555.59
2023-08-15T21:26:03.734Z,57574.19
2023-08-15T21:28:30.331Z,57572.13
2023-08-15T21:30:57.095Z,57528.78
2023-08-15T21:33:23.976Z,57539.09
2023-08-15T21:35:53.662Z,57555.59
2023-08-15T21:38:21.798Z,57547.34
2023-08-15T21:40:49.254Z,57565.91
2023-08-15T21:43:17.196Z,57522.59
2023-08-15T21:45:45.667Z,57520.53
2023-08-15T21:48:12.478Z,57545.28
2023-08-15T21:50:39.183Z,57534.97
2023-08-15T21:53:06.281Z,57516.41
2023-08-15T21:55:33.113Z,57532.91
2023-08-15T21:57:59.804Z,57526.72
2023-08-15T22:00:28.166Z,57514.34
2023-08-15T22:02:58.066Z,57504.03
2023-08-15T22:05:26.051Z,57506.09
2023-08-15T22:07:53.261Z,57512.28
2023-08-15T22:10:21.973Z,57520.53
2023-08-15T22:12:50.143Z,57487.53
2023-08-15T22:15:18.141Z,57510.22
2023-08-15T22:17:48.979Z,57497.84
2023-08-15T22:20:21.444Z,57504.03
2023-08-15T22:22:49.534Z,57501.97
2023-08-15T22:25:21.165Z,57487.53
2023-08-15T22:27:49.945Z,57497.84
2023-08-15T22:30:16.812Z,57514.34
2023-08-15T22:32:43.549Z,57481.34
2023-08-15T22:35:10.636Z,57473.09
2023-08-15T22:37:37.384Z,57501.97
2023-08-15T22:40:04.926Z,57506.09
2023-08-15T22:42:32.395Z,57477.22
2023-08-15T22:45:01.086Z,57462.78
2023-08-15T22:47:27.884Z,57475.16
2023-08-15T22:49:54.632Z,57460.69
2023-08-15T22:52:21.401Z,57456.56
2023-08-15T22:54:51.726Z,57466.91
2023-08-15T22:57:21.023Z,57462.78
2023-08-15T22:59:47.981Z,57479.28
2023-08-15T23:02:15.768Z,57475.16
2023-08-15T23:04:43.739Z,57452.44
2023-08-15T23:07:10.518Z,57456.56
2023-08-15T23:09:37.242Z,57464.81
2023-08-15T23:12:04.651Z,57468.97
2023-08-15T23:14:33.370Z,57458.63
2023-08-15T23:17:00.253Z,57479.28
2023-08-15T23:19:27.011Z,57462.78
2023-08-15T23:21:53.758Z,57458.63
2023-08-15T23:24:20.518Z,57444.19
2023-08-15T23:26:47.181Z,57466.91
2023-08-15T23:29:13.923Z,57431.81
2023-08-15T23:31:41.641Z,57452.44
2023-08-15T23:34:08.324Z,57448.31
2023-08-15T23:36:35.273Z,57442.13
2023-08-15T23:39:02.551Z,57442.13
2023-08-15T23:41:30.370Z,57452.44
2023-08-15T23:43:57.044Z,57421.50
2023-08-15T23:46:27.082Z,57431.81
2023-08-15T23:48:53.868Z,57429.75
2023-08-15T23:51:22.675Z,57423.56
2023-08-15T23:53:51.381Z,57444.19
2023-08-15T23:56:18.081Z,57421.50
2023-08-15T23:58:46.201Z,57417.38
